sensor_id;sensor_type;location;lat;lon;timestamp;pressure;altitude;pressure_sealevel;temperature;humidity
2036;BME280;23642;42.658;23.350;2022-08-19T00:01:27;55658.38;;;-146.31;64.11
2036;BME280;23642;42.658;23.350;2022-08-19T00:03:56;55666.63;;;-146.31;63.85
2036;BME280;23642;42.658;23.350;2022-08-19T00:06:23;55668.69;;;-146.31;64.23
2036;BME280;23642;42.658;23.350;2022-08-19T00:08:50;55693.47;;;-146.31;63.52
2036;BME280;23642;42.658;23.350;2022-08-19T00:11:18;55683.16;;;-146.31;63.53
2036;BME280;23642;42.658;23.350;2022-08-19T00:13:46;55652.16;;;-146.31;63.41
2036;BME280;23642;42.658;23.350;2022-08-19T00:16:17;55641.84;;;-146.31;63.77
2036;BME280;23642;42.658;23.350;2022-08-19T00:18:46;55633.56;;;-146.31;65.18
2036;BME280;23642;42.658;23.350;2022-08-19T00:21:13;55623.25;;;-146.31;65.38
2036;BME280;23642;42.658;23.350;2022-08-19T00:23:41;55641.84;;;-146.31;65.45
2036;BME280;23642;42.658;23.350;2022-08-19T00:26:08;55631.50;;;-146.31;65.89
2036;BME280;23642;42.658;23.350;2022-08-19T00:28:36;55623.25;;;-146.31;65.11
2036;BME280;23642;42.658;23.350;2022-08-19T00:31:04;55617.06;;;-146.31;64.66
2036;BME280;23642;42.658;23.350;2022-08-19T00:33:33;55612.91;;;-146.31;65.63
2036;BME280;23642;42.658;23.350;2022-08-19T00:36:01;55596.41;;;-146.31;65.93
2036;BME280;23642;42.658;23.350;2022-08-19T00:38:31;55619.13;;;-146.31;64.50
2036;BME280;23642;42.658;23.350;2022-08-19T00:40:59;55600.53;;;-146.31;64.85
2036;BME280;23642;42.658;23.350;2022-08-19T00:43:27;55629.44;;;-146.31;66.01
2036;BME280;23642;42.658;23.350;2022-08-19T00:45:55;55625.31;;;-146.31;66.13
2036;BME280;23642;42.658;23.350;2022-08-19T00:48:22;55606.72;;;-146.31;66.40
2036;BME280;23642;42.658;23.350;2022-08-19T00:50:52;55602.59;;;-146.31;67.23
2036;BME280;23642;42.658;23.350;2022-08-19T00:53:23;55550.97;;;-146.31;68.23
2036;BME280;23642;42.658;23.350;2022-08-19T00:55:53;55528.22;;;-146.31;68.68
2036;BME280;23642;42.658;23.350;2022-08-19T00:58:26;55509.66;;;-146.31;69.17
2036;BME280;23642;42.658;23.350;2022-08-19T01:00:53;55522.03;;;-146.31;69.45
2036;BME280;23642;42.658;23.350;2022-08-19T01:03:21;55458.00;;;-146.31;68.95
2036;BME280;23642;42.658;23.350;2022-08-19T01:05:52;55443.56;;;-146.31;68.40
2036;BME280;23642;42.658;23.350;2022-08-19T01:08:20;55468.34;;;-146.31;69.00
2036;BME280;23642;42.658;23.350;2022-08-19T01:10:50;55443.56;;;-146.31;68.80
2036;BME280;23642;42.658;23.350;2022-08-19T01:13:19;55441.50;;;-146.31;68.81
2036;BME280;23642;42.658;23.350;2022-08-19T01:15:51;55462.13;;;-146.31;69.13
2036;BME280;23642;42.658;23.350;2022-08-19T01:18:19;55431.16;;;-146.31;67.71
2036;BME280;23642;42.658;23.350;2022-08-19T01:20:47;55455.94;;;-146.31;68.25
2036;BME280;23642;42.658;23.350;2022-08-19T01:23:15;55427.03;;;-146.31;69.00
2036;BME280;23642;42.658;23.350;2022-08-19T01:25:45;55416.69;;;-146.31;68.40
2036;BME280;23642;42.658;23.350;2022-08-19T01:28:20;55427.03;;;-146.31;69.52
2036;BME280;23642;42.658;23.350;2022-08-19T01:30:48;55406.38;;;-146.31;68.40
2036;BME280;23642;42.658;23.350;2022-08-19T01:33:15;55439.41;;;-146.31;69.65
2036;BME280;23642;42.658;23.350;2022-08-19T01:35:45;55418.78;;;-146.31;70.16
2036;BME280;23642;42.658;23.350;2022-08-19T01:38:23;55427.03;;;-146.31;70.65
2036;BME280;23642;42.658;23.350;2022-08-19T01:40:51;55400.19;;;-146.31;71.60
2036;BME280;23642;42.658;23.350;2022-08-19T01:43:18;55406.38;;;-146.31;71.76
2036;BME280;23642;42.658;23.350;2022-08-19T01:45:46;55396.03;;;-146.31;72.02
2036;BME280;23642;42.658;23.350;2022-08-19T01:48:13;55360.94;;;-146.31;72.16
2036;BME280;23642;42.658;23.350;2022-08-19T01:50:40;55350.59;;;-146.31;72.49
2036;BME280;23642;42.658;23.350;2022-08-19T01:53:10;55350.59;;;-146.31;72.23
2036;BME280;23642;42.658;23.350;2022-08-19T01:55:41;55342.34;;;-146.31;73.22
2036;BME280;23642;42.658;23.350;2022-08-19T01:58:12;55336.16;;;-146.31;73.72
2036;BME280;23642;42.658;23.350;2022-08-19T02:00:40;55315.50;;;-146.31;73.97
2036;BME280;23642;42.658;23.350;2022-08-19T02:03:07;55292.78;;;-146.31;73.90
2036;BME280;23642;42.658;23.350;2022-08-19T02:05:37;55298.97;;;-146.31;73.10
2036;BME280;23642;42.658;23.350;2022-08-19T02:08:04;55276.25;;;-146.31;72.78
2036;BME280;23642;42.658;23.350;2022-08-19T02:10:31;55234.94;;;-146.31;73.34
2036;BME280;23642;42.658;23.350;2022-08-19T02:13:00;55251.47;;;-146.31;73.88
2036;BME280;23642;42.658;23.350;2022-08-19T02:15:28;55224.63;;;-146.31;73.57
2036;BME280;23642;42.658;23.350;2022-08-19T02:17:55;55226.69;;;-146.31;73.56
2036;BME280;23642;42.658;23.350;2022-08-19T02:20:22;55210.16;;;-146.31;74.29
2036;BME280;23642;42.658;23.350;2022-08-19T02:22:50;55239.06;;;-146.31;73.94
2036;BME280;23642;42.658;23.350;2022-08-19T02:25:17;55222.56;;;-146.31;73.76
2036;BME280;23642;42.658;23.350;2022-08-19T02:27:44;55220.50;;;-146.31;74.69
2036;BME280;23642;42.658;23.350;2022-08-19T02:30:16;55257.66;;;-146.31;74.67
2036;BME280;23642;42.658;23.350;2022-08-19T02:32:44;55245.28;;;-146.31;74.24
2036;BME280;23642;42.658;23.350;2022-08-19T02:35:12;55274.19;;;-146.31;73.22
2036;BME280;23642;42.658;23.350;2022-08-19T02:37:39;55292.78;;;-146.31;71.28
2036;BME280;23642;42.658;23.350;2022-08-19T02:40:24;55284.50;;;-146.31;72.69
2036;BME280;23642;42.658;23.350;2022-08-19T02:42:51;55253.53;;;-146.31;73.87
2036;BME280;23642;42.658;23.350;2022-08-19T02:45:19;55261.78;;;-146.31;75.15
2036;BME280;23642;42.658;23.350;2022-08-19T02:47:47;55253.53;;;-146.31;75.90
2036;BME280;23642;42.658;23.350;2022-08-19T02:50:14;55243.22;;;-146.31;77.50
2036;BME280;23642;42.658;23.350;2022-08-19T02:52:41;55239.06;;;-146.31;77.92
2036;BME280;23642;42.658;23.350;2022-08-19T02:55:08;55224.63;;;-146.31;79.27
2036;BME280;23642;42.658;23.350;2022-08-19T02:57:35;55232.88;;;-146.31;80.13
2036;BME280;23642;42.658;23.350;2022-08-19T03:00:04;55220.50;;;-146.31;80.22
2036;BME280;23642;42.658;23.350;2022-08-19T03:02:33;55228.75;;;-146.31;80.49
2036;BME280;23642;42.658;23.350;2022-08-19T03:05:02;55199.84;;;-146.31;80.68
2036;BME280;23642;42.658;23.350;2022-08-19T03:07:29;55193.66;;;-146.31;80.60
2036;BME280;23642;42.658;23.350;2022-08-19T03:09:57;55201.91;;;-146.31;80.64
2036;BME280;23642;42.658;23.350;2022-08-19T03:12:24;55187.44;;;-146.31;80.70
2036;BME280;23642;42.658;23.350;2022-08-19T03:14:51;55187.44;;;-146.31;80.58
2036;BME280;23642;42.658;23.350;2022-08-19T03:17:19;55193.66;;;-146.31;80.54
2036;BME280;23642;42.658;23.350;2022-08-19T03:19:47;55175.06;;;-146.31;80.03
2036;BME280;23642;42.658;23.350;2022-08-19T03:22:14;55162.66;;;-146.31;79.41
2036;BME280;23642;42.658;23.350;2022-08-19T03:24:41;55170.94;;;-146.31;79.52
2036;BME280;23642;42.658;23.350;2022-08-19T03:27:08;55185.38;;;-146.31;79.27
2036;BME280;23642;42.658;23.350;2022-08-19T03:29:37;55148.22;;;-146.31;79.44
2036;BME280;23642;42.658;23.350;2022-08-19T03:32:05;55154.41;;;-146.31;79.02
2036;BME280;23642;42.658;23.350;2022-08-19T03:34:33;55154.41;;;-146.31;79.04
2036;BME280;23642;42.658;23.350;2022-08-19T03:37:07;55191.56;;;-146.31;79.72
2036;BME280;23642;42.658;23.350;2022-08-19T03:39:36;55170.94;;;-146.31;79.98
2036;BME280;23642;42.658;23.350;2022-08-19T03:42:04;55168.84;;;-146.31;80.05
2036;BME280;23642;42.658;23.350;2022-08-19T03:44:31;55150.28;;;-146.31;79.74
2036;BME280;23642;42.658;23.350;2022-08-19T03:46:59;55154.41;;;-146.31;78.57
2036;BME280;23642;42.658;23.350;2022-08-19T03:49:29;55127.56;;;-146.31;78.46
2036;BME280;23642;42.658;23.350;2022-08-19T03:51:57;55168.84;;;-146.31;78.72
2036;BME280;23642;42.658;23.350;2022-08-19T03:54:27;55133.75;;;-146.31;78.82
2036;BME280;23642;42.658;23.350;2022-08-19T03:56:56;55164.72;;;-146.31;78.42
2036;BME280;23642;42.658;23.350;2022-08-19T03:59:25;55125.50;;;-146.31;78.61
2036;BME280;23642;42.658;23.350;2022-08-19T04:01:53;55104.84;;;-146.31;78.42
2036;BME280;23642;42.658;23.350;2022-08-19T04:04:20;55090.38;;;-146.31;77.21
2036;BME280;23642;42.658;23.350;2022-08-19T04:06:48;55096.56;;;-146.31;78.14
2036;BME280;23642;42.658;23.350;2022-08-19T04:09:16;55100.72;;;-146.31;77.79
2036;BME280;23642;42.658;23.350;2022-08-19T04:11:47;55088.31;;;-146.31;77.92
2036;BME280;23642;42.658;23.350;2022-08-19T04:14:16;55096.56;;;-146.31;77.30
2036;BME280;23642;42.658;23.350;2022-08-19T04:16:46;55092.44;;;-146.31;76.84
2036;BME280;23642;42.658;23.350;2022-08-19T04:19:14;55092.44;;;-146.31;75.42
2036;BME280;23642;42.658;23.350;2022-08-19T04:21:44;55096.56;;;-146.31;75.30
2036;BME280;23642;42.658;23.350;2022-08-19T04:24:12;55092.44;;;-146.31;75.15
2036;BME280;23642;42.658;23.350;2022-08-19T04:26:40;55047.00;;;-146.31;73.09
2036;BME280;23642;42.658;23.350;2022-08-19T04:29:12;55067.66;;;-146.31;72.88
2036;BME280;23642;42.658;23.350;2022-08-19T04:31:42;55090.38;;;-146.31;73.26
2036;BME280;23642;42.658;23.350;2022-08-19T04:34:11;55080.06;;;-146.31;72.98
2036;BME280;23642;42.658;23.350;2022-08-19T04:36:41;55084.19;;;-146.31;72.53
2036;BME280;23642;42.658;23.350;2022-08-19T04:39:12;55078.00;;;-146.31;72.39
2036;BME280;23642;42.658;23.350;2022-08-19T04:41:39;55063.53;;;-146.31;70.38
2036;BME280;23642;42.658;23.350;2022-08-19T04:44:25;55055.28;;;-146.31;68.79
2036;BME280;23642;42.658;23.350;2022-08-19T04:46:59;55061.47;;;-146.31;69.13
2036;BME280;23642;42.658;23.350;2022-08-19T04:49:27;55061.47;;;-146.31;69.03
2036;BME280;23642;42.658;23.350;2022-08-19T04:51:54;55071.78;;;-146.31;69.04
2036;BME280;23642;42.658;23.350;2022-08-19T04:54:23;55063.53;;;-146.31;69.10
2036;BME280;23642;42.658;23.350;2022-08-19T04:56:52;55057.34;;;-146.31;68.63
2036;BME280;23642;42.658;23.350;2022-08-19T04:59:20;55067.66;;;-146.31;65.20
2036;BME280;23642;42.658;23.350;2022-08-19T05:01:49;55063.53;;;-146.31;63.21
2036;BME280;23642;42.658;23.350;2022-08-19T05:04:19;55104.84;;;-146.31;62.97
2036;BME280;23642;42.658;23.350;2022-08-19T05:06:47;55057.34;;;-146.31;63.25
2036;BME280;23642;42.658;23.350;2022-08-19T05:09:16;55067.66;;;-146.31;63.15
2036;BME280;23642;42.658;23.350;2022-08-19T05:11:44;55024.28;;;-146.31;62.10
2036;BME280;23642;42.658;23.350;2022-08-19T05:14:11;55071.78;;;-146.31;61.11
2036;BME280;23642;42.658;23.350;2022-08-19T05:16:39;55047.00;;;-146.31;60.88
2036;BME280;23642;42.658;23.350;2022-08-19T05:19:08;55028.44;;;-146.31;61.15
2036;BME280;23642;42.658;23.350;2022-08-19T05:21:53;54993.31;;;-146.31;60.50
2036;BME280;23642;42.658;23.350;2022-08-19T05:24:37;54997.44;;;-146.31;60.35
2036;BME280;23642;42.658;23.350;2022-08-19T05:27:04;54966.47;;;-146.31;59.71
2036;BME280;23642;42.658;23.350;2022-08-19T05:29:33;54980.94;;;-146.31;58.78
2036;BME280;23642;42.658;23.350;2022-08-19T05:32:02;55044.94;;;-146.31;58.88
2036;BME280;23642;42.658;23.350;2022-08-19T05:34:31;55026.34;;;-146.31;58.75
2036;BME280;23642;42.658;23.350;2022-08-19T05:36:59;54993.31;;;-146.31;57.86
2036;BME280;23642;42.658;23.350;2022-08-19T05:39:30;55003.63;;;-146.31;56.06
2036;BME280;23642;42.658;23.350;2022-08-19T05:41:59;55024.28;;;-146.31;56.92
2036;BME280;23642;42.658;23.350;2022-08-19T05:44:27;54997.44;;;-146.31;56.90
2036;BME280;23642;42.658;23.350;2022-08-19T05:46:56;55040.81;;;-146.31;55.86
2036;BME280;23642;42.658;23.350;2022-08-19T05:49:24;55020.16;;;-146.31;56.23
2036;BME280;23642;42.658;23.350;2022-08-19T05:51:54;55051.13;;;-146.31;55.53
2036;BME280;23642;42.658;23.350;2022-08-19T05:54:22;54991.25;;;-146.31;55.18
2036;BME280;23642;42.658;23.350;2022-08-19T05:56:49;54966.47;;;-146.31;55.09
2036;BME280;23642;42.658;23.350;2022-08-19T05:59:21;54941.69;;;-146.31;53.66
2036;BME280;23642;42.658;23.350;2022-08-19T06:01:50;54923.09;;;-146.31;53.78
2036;BME280;23642;42.658;23.350;2022-08-19T06:04:18;54931.38;;;-146.31;53.02
2036;BME280;23642;42.658;23.350;2022-08-19T06:06:51;54916.91;;;-146.31;52.44
2036;BME280;23642;42.658;23.350;2022-08-19T06:09:21;54968.53;;;-146.31;51.51
2036;BME280;23642;42.658;23.350;2022-08-19T06:11:50;54939.63;;;-146.31;52.46
2036;BME280;23642;42.658;23.350;2022-08-19T06:14:21;54958.22;;;-146.31;52.02
2036;BME280;23642;42.658;23.350;2022-08-19T06:16:51;54906.56;;;-146.31;51.66
2036;BME280;23642;42.658;23.350;2022-08-19T06:19:21;54921.03;;;-146.31;51.46
2036;BME280;23642;42.658;23.350;2022-08-19T06:21:50;54923.09;;;-146.31;51.26
2036;BME280;23642;42.658;23.350;2022-08-19T06:24:22;54931.38;;;-146.31;51.01
2036;BME280;23642;42.658;23.350;2022-08-19T06:26:52;54900.38;;;-146.31;49.66
2036;BME280;23642;42.658;23.350;2022-08-19T06:29:22;54947.88;;;-146.31;50.31
2036;BME280;23642;42.658;23.350;2022-08-19T06:31:52;54947.88;;;-146.31;50.73
2036;BME280;23642;42.658;23.350;2022-08-19T06:34:21;54939.63;;;-146.31;50.31
2036;BME280;23642;42.658;23.350;2022-08-19T06:36:50;54906.56;;;-146.31;50.41
2036;BME280;23642;42.658;23.350;2022-08-19T06:39:24;54925.16;;;-146.31;49.57
2036;BME280;23642;42.658;23.350;2022-08-19T06:41:53;54931.38;;;-146.31;48.29
2036;BME280;23642;42.658;23.350;2022-08-19T06:44:24;55016.03;;;-146.31;47.94
2036;BME280;23642;42.658;23.350;2022-08-19T06:47:02;55001.56;;;-146.31;48.02
2036;BME280;23642;42.658;23.350;2022-08-19T06:49:30;55013.97;;;-146.31;47.21
2036;BME280;23642;42.658;23.350;2022-08-19T06:51:58;55032.56;;;-146.31;48.81
2036;BME280;23642;42.658;23.350;2022-08-19T06:54:28;55026.34;;;-146.31;48.74
2036;BME280;23642;42.658;23.350;2022-08-19T06:56:58;54945.81;;;-146.31;49.19
2036;BME280;23642;42.658;23.350;2022-08-19T06:59:29;54980.94;;;-146.31;49.12
2036;BME280;23642;42.658;23.350;2022-08-19T07:01:58;54968.53;;;-146.31;48.95
2036;BME280;23642;42.658;23.350;2022-08-19T07:04:29;55018.09;;;-146.31;49.86
2036;BME280;23642;42.658;23.350;2022-08-19T07:07:00;54993.31;;;-146.31;49.49
2036;BME280;23642;42.658;23.350;2022-08-19T07:09:29;54997.44;;;-146.31;49.56
2036;BME280;23642;42.658;23.350;2022-08-19T07:11:58;55009.84;;;-146.31;49.43
2036;BME280;23642;42.658;23.350;2022-08-19T07:14:27;54980.94;;;-146.31;49.74
2036;BME280;23642;42.658;23.350;2022-08-19T07:16:56;54939.63;;;-146.31;49.41
2036;BME280;23642;42.658;23.350;2022-08-19T07:19:26;54972.66;;;-146.31;47.84
2036;BME280;23642;42.658;23.350;2022-08-19T07:21:54;55001.56;;;-146.31;48.05
2036;BME280;23642;42.658;23.350;2022-08-19T07:24:24;54985.06;;;-146.31;48.54
2036;BME280;23642;42.658;23.350;2022-08-19T07:27:00;54939.63;;;-146.31;47.44
2036;BME280;23642;42.658;23.350;2022-08-19T07:29:29;54939.63;;;-146.31;47.39
2036;BME280;23642;42.658;23.350;2022-08-19T07:31:59;54962.34;;;-146.31;47.46
2036;BME280;23642;42.658;23.350;2022-08-19T07:34:27;54989.19;;;-146.31;47.58
2036;BME280;23642;42.658;23.350;2022-08-19T07:36:55;54989.19;;;-146.31;46.93
2036;BME280;23642;42.658;23.350;2022-08-19T07:39:25;54952.00;;;-146.31;46.99
2036;BME280;23642;42.658;23.350;2022-08-19T07:41:55;55007.78;;;-146.31;46.17
2036;BME280;23642;42.658;23.350;2022-08-19T07:44:24;54995.38;;;-146.31;46.84
2036;BME280;23642;42.658;23.350;2022-08-19T07:46:53;55018.09;;;-146.31;45.51
2036;BME280;23642;42.658;23.350;2022-08-19T07:49:23;54947.88;;;-146.31;45.83
2036;BME280;23642;42.658;23.350;2022-08-19T07:51:55;55001.56;;;-146.31;45.61
2036;BME280;23642;42.658;23.350;2022-08-19T07:54:25;55034.63;;;-146.31;45.58
2036;BME280;23642;42.658;23.350;2022-08-19T07:56:54;54962.34;;;-146.31;45.12
2036;BME280;23642;42.658;23.350;2022-08-19T07:59:26;54993.31;;;-146.31;44.69
2036;BME280;23642;42.658;23.350;2022-08-19T08:01:54;54960.28;;;-146.31;43.84
2036;BME280;23642;42.658;23.350;2022-08-19T08:04:22;54989.19;;;-146.31;43.81
2036;BME280;23642;42.658;23.350;2022-08-19T08:07:06;54991.25;;;-146.31;43.87
2036;BME280;23642;42.658;23.350;2022-08-19T08:09:53;54978.84;;;-146.31;43.80
2036;BME280;23642;42.658;23.350;2022-08-19T08:12:22;55016.03;;;-146.31;44.09
2036;BME280;23642;42.658;23.350;2022-08-19T08:14:57;54987.13;;;-146.31;43.44
2036;BME280;23642;42.658;23.350;2022-08-19T08:17:28;54949.94;;;-146.31;43.67
2036;BME280;23642;42.658;23.350;2022-08-19T08:19:56;55049.06;;;-146.31;42.90
2036;BME280;23642;42.658;23.350;2022-08-19T08:22:24;55042.88;;;-146.31;42.87
2036;BME280;23642;42.658;23.350;2022-08-19T08:25:11;55071.78;;;-146.31;41.98
2036;BME280;23642;42.658;23.350;2022-08-19T08:27:40;55022.22;;;-146.31;41.72
2036;BME280;23642;42.658;23.350;2022-08-19T08:30:14;54970.59;;;-146.31;41.61
2036;BME280;23642;42.658;23.350;2022-08-19T08:32:42;55016.03;;;-146.31;41.13
2036;BME280;23642;42.658;23.350;2022-08-19T08:35:12;55001.56;;;-146.31;41.54
2036;BME280;23642;42.658;23.350;2022-08-19T08:37:39;54972.66;;;-146.31;40.71
2036;BME280;23642;42.658;23.350;2022-08-19T08:40:13;54956.16;;;-146.31;40.53
2036;BME280;23642;42.658;23.350;2022-08-19T08:42:48;54935.50;;;-146.31;40.35
2036;BME280;23642;42.658;23.350;2022-08-19T08:45:24;54976.78;;;-146.31;38.54
2036;BME280;23642;42.658;23.350;2022-08-19T08:47:59;54968.53;;;-146.31;39.17
2036;BME280;23642;42.658;23.350;2022-08-19T08:50:32;54978.84;;;-146.31;39.18
2036;BME280;23642;42.658;23.350;2022-08-19T08:53:04;54956.16;;;-146.31;39.14
2036;BME280;23642;42.658;23.350;2022-08-19T08:55:32;54985.06;;;-146.31;38.88
2036;BME280;23642;42.658;23.350;2022-08-19T08:58:03;54987.13;;;-146.31;38.87
2036;BME280;23642;42.658;23.350;2022-08-19T09:00:34;55065.59;;;-146.31;37.91
2036;BME280;23642;42.658;23.350;2022-08-19T09:03:03;55080.06;;;-146.31;37.48
2036;BME280;23642;42.658;23.350;2022-08-19T09:05:40;54976.78;;;-146.31;37.55
2036;BME280;23642;42.658;23.350;2022-08-19T09:08:15;54978.84;;;-146.31;35.67
2036;BME280;23642;42.658;23.350;2022-08-19T09:10:51;54991.25;;;-146.31;35.76
2036;BME280;23642;42.658;23.350;2022-08-19T09:13:25;54991.25;;;-146.31;35.71
2036;BME280;23642;42.658;23.350;2022-08-19T09:16:05;55063.53;;;-146.31;34.97
2036;BME280;23642;42.658;23.350;2022-08-19T09:18:43;55067.66;;;-146.31;34.59
2036;BME280;23642;42.658;23.350;2022-08-19T09:21:13;55038.75;;;-146.31;35.42
2036;BME280;23642;42.658;23.350;2022-08-19T09:23:40;55104.84;;;-146.31;34.17
2036;BME280;23642;42.658;23.350;2022-08-19T09:26:10;55030.50;;;-146.31;34.62
2036;BME280;23642;42.658;23.350;2022-08-19T09:28:39;55084.19;;;-146.31;32.77
2036;BME280;23642;42.658;23.350;2022-08-19T09:31:17;55084.19;;;-146.31;32.42
2036;BME280;23642;42.658;23.350;2022-08-19T09:33:45;55096.56;;;-146.31;32.60
2036;BME280;23642;42.658;23.350;2022-08-19T09:36:15;55104.84;;;-146.31;31.61
2036;BME280;23642;42.658;23.350;2022-08-19T09:38:44;55094.50;;;-146.31;32.23
2036;BME280;23642;42.658;23.350;2022-08-19T09:41:14;55104.84;;;-146.31;31.95
2036;BME280;23642;42.658;23.350;2022-08-19T09:43:45;55104.84;;;-146.31;32.27
2036;BME280;23642;42.658;23.350;2022-08-19T09:46:15;55059.41;;;-146.31;32.09
2036;BME280;23642;42.658;23.350;2022-08-19T09:48:43;55158.53;;;-146.31;31.46
2036;BME280;23642;42.658;23.350;2022-08-19T09:51:15;55129.63;;;-146.31;31.84
2036;BME280;23642;42.658;23.350;2022-08-19T09:53:44;55129.63;;;-146.31;31.47
2036;BME280;23642;42.658;23.350;2022-08-19T09:56:16;55125.50;;;-146.31;31.35
2036;BME280;23642;42.658;23.350;2022-08-19T09:58:44;55150.28;;;-146.31;31.89
2036;BME280;23642;42.658;23.350;2022-08-19T10:01:20;55168.84;;;-146.31;32.10
2036;BME280;23642;42.658;23.350;2022-08-19T10:03:49;55154.41;;;-146.31;31.95
2036;BME280;23642;42.658;23.350;2022-08-19T10:06:18;55175.06;;;-146.31;31.75
2036;BME280;23642;42.658;23.350;2022-08-19T10:08:46;55154.41;;;-146.31;31.09
2036;BME280;23642;42.658;23.350;2022-08-19T10:11:14;55154.41;;;-146.31;31.11
2036;BME280;23642;42.658;23.350;2022-08-19T10:13:43;55144.06;;;-146.31;30.74
2036;BME280;23642;42.658;23.350;2022-08-19T10:16:13;55117.22;;;-146.31;30.85
2036;BME280;23642;42.658;23.350;2022-08-19T10:18:42;55131.69;;;-146.31;30.37
2036;BME280;23642;42.658;23.350;2022-08-19T10:21:11;55067.66;;;-146.31;30.75
2036;BME280;23642;42.658;23.350;2022-08-19T10:23:41;55080.06;;;-146.31;30.82
2036;BME280;23642;42.658;23.350;2022-08-19T10:26:18;55049.06;;;-146.31;30.84
2036;BME280;23642;42.658;23.350;2022-08-19T10:28:46;55051.13;;;-146.31;30.63
2036;BME280;23642;42.658;23.350;2022-08-19T10:31:17;55059.41;;;-146.31;30.58
2036;BME280;23642;42.658;23.350;2022-08-19T10:33:50;55121.34;;;-146.31;30.27
2036;BME280;23642;42.658;23.350;2022-08-19T10:36:24;55168.84;;;-146.31;30.59
2036;BME280;23642;42.658;23.350;2022-08-19T10:38:53;55156.47;;;-146.31;30.47
2036;BME280;23642;42.658;23.350;2022-08-19T10:41:30;55142.00;;;-146.31;30.21
2036;BME280;23642;42.658;23.350;2022-08-19T10:43:59;55094.50;;;-146.31;30.30
2036;BME280;23642;42.658;23.350;2022-08-19T10:46:28;55104.84;;;-146.31;30.19
2036;BME280;23642;42.658;23.350;2022-08-19T10:49:05;55092.44;;;-146.31;30.06
2036;BME280;23642;42.658;23.350;2022-08-19T10:51:32;55028.44;;;-146.31;30.16
2036;BME280;23642;42.658;23.350;2022-08-19T10:54:17;55113.09;;;-146.31;29.94
2036;BME280;23642;42.658;23.350;2022-08-19T10:56:44;55111.03;;;-146.31;30.06
2036;BME280;23642;42.658;23.350;2022-08-19T10:59:22;55078.00;;;-146.31;30.02
2036;BME280;23642;42.658;23.350;2022-08-19T11:01:53;55119.28;;;-146.31;30.14
2036;BME280;23642;42.658;23.350;2022-08-19T11:04:23;55086.25;;;-146.31;29.96
2036;BME280;23642;42.658;23.350;2022-08-19T11:06:50;55168.84;;;-146.31;30.28
2036;BME280;23642;42.658;23.350;2022-08-19T11:09:19;55154.41;;;-146.31;30.09
2036;BME280;23642;42.658;23.350;2022-08-19T11:11:46;55067.66;;;-146.31;30.19
2036;BME280;23642;42.658;23.350;2022-08-19T11:14:16;55082.13;;;-146.31;30.15
2036;BME280;23642;42.658;23.350;2022-08-19T11:16:47;55057.34;;;-146.31;30.06
2036;BME280;23642;42.658;23.350;2022-08-19T11:19:15;55040.81;;;-146.31;29.89
2036;BME280;23642;42.658;23.350;2022-08-19T11:21:47;55016.03;;;-146.31;29.70
2036;BME280;23642;42.658;23.350;2022-08-19T11:24:18;55038.75;;;-146.31;29.94
2036;BME280;23642;42.658;23.350;2022-08-19T11:26:48;55030.50;;;-146.31;29.57
2036;BME280;23642;42.658;23.350;2022-08-19T11:29:17;55036.69;;;-146.31;29.73
2036;BME280;23642;42.658;23.350;2022-08-19T11:31:47;55032.56;;;-146.31;29.89
2036;BME280;23642;42.658;23.350;2022-08-19T11:34:17;55042.88;;;-146.31;29.66
2036;BME280;23642;42.658;23.350;2022-08-19T11:36:50;55034.63;;;-146.31;29.82
2036;BME280;23642;42.658;23.350;2022-08-19T11:39:20;54997.44;;;-146.31;29.25
2036;BME280;23642;42.658;23.350;2022-08-19T11:41:48;55065.59;;;-146.31;29.14
2036;BME280;23642;42.658;23.350;2022-08-19T11:44:15;54999.50;;;-146.31;29.70
2036;BME280;23642;42.658;23.350;2022-08-19T11:46:46;55030.50;;;-146.31;29.45
2036;BME280;23642;42.658;23.350;2022-08-19T11:49:14;55086.25;;;-146.31;29.51
2036;BME280;23642;42.658;23.350;2022-08-19T11:51:43;55096.56;;;-146.31;29.42
2036;BME280;23642;42.658;23.350;2022-08-19T11:54:13;55038.75;;;-146.31;29.78
2036;BME280;23642;42.658;23.350;2022-08-19T11:56:42;55016.03;;;-146.31;29.20
2036;BME280;23642;42.658;23.350;2022-08-19T11:59:11;54947.88;;;-146.31;29.08
2036;BME280;23642;42.658;23.350;2022-08-19T12:01:39;55049.06;;;-146.31;29.17
2036;BME280;23642;42.658;23.350;2022-08-19T12:04:09;55032.56;;;-146.31;28.99
2036;BME280;23642;42.658;23.350;2022-08-19T12:06:49;55020.16;;;-146.31;28.75
2036;BME280;23642;42.658;23.350;2022-08-19T12:09:19;55016.03;;;-146.31;29.10
2036;BME280;23642;42.658;23.350;2022-08-19T12:11:57;54968.53;;;-146.31;28.65
2036;BME280;23642;42.658;23.350;2022-08-19T12:14:24;55040.81;;;-146.31;29.04
2036;BME280;23642;42.658;23.350;2022-08-19T12:16:53;55038.75;;;-146.31;29.16
2036;BME280;23642;42.658;23.350;2022-08-19T12:19:36;55057.34;;;-146.31;29.10
2036;BME280;23642;42.658;23.350;2022-08-19T12:22:06;55092.44;;;-146.31;29.10
2036;BME280;23642;42.658;23.350;2022-08-19T12:24:34;55080.06;;;-146.31;28.82
2036;BME280;23642;42.658;23.350;2022-08-19T12:27:01;55053.22;;;-146.31;29.17
2036;BME280;23642;42.658;23.350;2022-08-19T12:29:29;55051.13;;;-146.31;29.07
2036;BME280;23642;42.658;23.350;2022-08-19T12:31:57;55011.91;;;-146.31;28.70
2036;BME280;23642;42.658;23.350;2022-08-19T12:34:29;55051.13;;;-146.31;28.80
2036;BME280;23642;42.658;23.350;2022-08-19T12:37:01;55051.13;;;-146.31;28.85
2036;BME280;23642;42.658;23.350;2022-08-19T12:39:30;55073.84;;;-146.31;28.54
2036;BME280;23642;42.658;23.350;2022-08-19T12:42:02;55034.63;;;-146.31;28.47
2036;BME280;23642;42.658;23.350;2022-08-19T12:44:30;55001.56;;;-146.31;28.29
2036;BME280;23642;42.658;23.350;2022-08-19T12:47:03;55009.84;;;-146.31;28.46
2036;BME280;23642;42.658;23.350;2022-08-19T12:49:30;55051.13;;;-146.31;28.30
2036;BME280;23642;42.658;23.350;2022-08-19T12:52:02;55053.22;;;-146.31;28.49
2036;BME280;23642;42.658;23.350;2022-08-19T12:54:30;54947.88;;;-146.31;28.86